createdAt,value
2023-02-14T00:01:16.979Z,102708.06
2023-02-14T00:03:44.481Z,102709.69
2023-02-14T00:06:14.012Z,102706.69
2023-02-14T00:08:44.325Z,102705.38
2023-02-14T00:11:12.390Z,102701.03
2023-02-14T00:14:01.261Z,102709.88
2023-02-14T00:16:27.855Z,102703.50
2023-02-14T00:19:04.681Z,102709.91
2023-02-14T00:21:32.938Z,102711.38
2023-02-14T00:24:00.451Z,102714.94
2023-02-14T00:26:27.977Z,102713.50
2023-02-14T00:28:56.837Z,102705.72
2023-02-14T00:31:24.773Z,102709.31
2023-02-14T00:33:52.326Z,102706.31
2023-02-14T00:36:20.954Z,102708.28
2023-02-14T00:38:48.466Z,102712.50
2023-02-14T00:41:19.207Z,102706.88
2023-02-14T00:43:47.752Z,102706.41
2023-02-14T00:46:17.412Z,102711.38
2023-02-14T00:48:44.957Z,102716.16
2023-02-14T00:51:12.547Z,102710.91
2023-02-14T00:53:40.442Z,102716.16
2023-02-14T00:56:08.716Z,102718.72
2023-02-14T00:58:36.254Z,102708.09
2023-02-14T01:01:03.901Z,102709.03
2023-02-14T01:03:33.569Z,102710.97
2023-02-14T01:06:01.178Z,102706.16
2023-02-14T01:08:28.754Z,102704.44
2023-02-14T01:10:56.232Z,102702.88
2023-02-14T01:13:23.765Z,102709.00
2023-02-14T01:15:53.007Z,102704.38
2023-02-14T01:18:20.494Z,102708.06
2023-02-14T01:20:49.435Z,102703.09
2023-02-14T01:23:16.889Z,102700.09
2023-02-14T01:25:44.370Z,102705.59
2023-02-14T01:28:11.902Z,102699.69
2023-02-14T01:30:39.483Z,102708.59
2023-02-14T01:33:06.981Z,102705.81
2023-02-14T01:35:38.515Z,102698.25
2023-02-14T01:38:07.570Z,102706.03
2023-02-14T01:40:35.416Z,102710.09
2023-02-14T01:43:02.846Z,102707.34
2023-02-14T01:45:31.903Z,102713.25
2023-02-14T01:47:59.575Z,102713.53
2023-02-14T01:50:29.725Z,102709.75
2023-02-14T01:53:00.136Z,102718.91
2023-02-14T01:55:31.533Z,102711.50
2023-02-14T01:58:01.669Z,102706.19
2023-02-14T02:00:52.063Z,102709.97
2023-02-14T02:03:20.372Z,102708.72
2023-02-14T02:05:49.925Z,102710.00
2023-02-14T02:08:17.666Z,102711.78
2023-02-14T02:10:46.488Z,102712.75
2023-02-14T02:13:17.770Z,102699.53
2023-02-14T02:15:51.561Z,102697.88
2023-02-14T02:18:25.114Z,102706.47
2023-02-14T02:21:12.161Z,102704.75
2023-02-14T02:23:57.717Z,102699.78
2023-02-14T02:26:58.756Z,102699.78
2023-02-14T02:29:49.392Z,102691.94
2023-02-14T02:32:40.655Z,102689.31
2023-02-14T02:35:22.075Z,102687.09
2023-02-14T02:37:59.839Z,102686.69
2023-02-14T02:40:37.540Z,102687.56
2023-02-14T02:43:16.763Z,102682.91
2023-02-14T02:46:05.893Z,102675.81
2023-02-14T02:48:38.348Z,102684.09
2023-02-14T02:51:28.000Z,102685.78
2023-02-14T02:54:00.188Z,102681.47
2023-02-14T02:56:46.724Z,102682.13
2023-02-14T02:59:19.095Z,102687.88
2023-02-14T03:01:50.893Z,102683.69
2023-02-14T03:04:37.337Z,102691.66
2023-02-14T03:07:27.045Z,102687.88
2023-02-14T03:09:57.737Z,102685.75
2023-02-14T03:13:07.913Z,102697.28
2023-02-14T03:15:42.638Z,102696.78
2023-02-14T03:18:33.948Z,102701.31
2023-02-14T03:21:07.822Z,102688.28
2023-02-14T03:23:40.283Z,102693.53
2023-02-14T03:26:15.041Z,102691.09
2023-02-14T03:28:46.007Z,102693.97
2023-02-14T03:31:21.330Z,102695.22
2023-02-14T03:33:52.268Z,102696.50
2023-02-14T03:36:22.878Z,102691.25
2023-02-14T03:38:56.102Z,102697.97
2023-02-14T03:41:27.291Z,102693.84
2023-02-14T03:43:58.227Z,102696.28
2023-02-14T03:46:29.231Z,102685.78
2023-02-14T03:48:59.319Z,102689.56
2023-02-14T03:51:27.523Z,102704.81
2023-02-14T03:53:58.077Z,102701.44
2023-02-14T03:56:31.107Z,102690.31
2023-02-14T03:59:01.383Z,102697.63
2023-02-14T04:01:32.016Z,102701.75
2023-02-14T04:04:00.239Z,102696.22
2023-02-14T04:06:27.750Z,102705.88
2023-02-14T04:08:56.674Z,102697.72
2023-02-14T04:11:24.704Z,102703.56
2023-02-14T04:13:52.287Z,102707.41
2023-02-14T04:16:19.792Z,102705.72
2023-02-14T04:19:05.080Z,102701.03
2023-02-14T04:21:32.627Z,102703.19
2023-02-14T04:24:01.484Z,102700.03
2023-02-14T04:26:28.993Z,102695.63
2023-02-14T04:28:56.454Z,102703.22
2023-02-14T04:31:24.051Z,102697.78
2023-02-14T04:33:51.565Z,102698.75
2023-02-14T04:36:19.056Z,102701.56
2023-02-14T04:38:46.546Z,102706.63
2023-02-14T04:41:15.337Z,102710.03
2023-02-14T04:43:42.822Z,102709.09
2023-02-14T04:46:10.296Z,102718.50
2023-02-14T04:48:37.793Z,102705.56
2023-02-14T04:51:06.706Z,102716.94
2023-02-14T04:53:40.038Z,102721.13
2023-02-14T04:56:07.953Z,102726.38
2023-02-14T04:58:36.822Z,102717.47
2023-02-14T05:01:04.383Z,102724.19
2023-02-14T05:03:32.008Z,102724.66
2023-02-14T05:05:59.447Z,102723.06
2023-02-14T05:08:26.914Z,102724.28
2023-02-14T05:10:55.615Z,102725.31
2023-02-14T05:13:23.362Z,102726.88
2023-02-14T05:15:52.247Z,102723.00
2023-02-14T05:18:19.764Z,102724.75
2023-02-14T05:20:50.233Z,102728.44
2023-02-14T05:23:17.768Z,102728.81
2023-02-14T05:25:45.382Z,102729.53
2023-02-14T05:28:12.910Z,102725.91
2023-02-14T05:30:40.879Z,102725.84
2023-02-14T05:33:09.893Z,102729.25
2023-02-14T05:35:37.586Z,102726.84
2023-02-14T05:38:05.268Z,102733.63
2023-02-14T05:40:32.902Z,102729.47
2023-02-14T05:43:00.443Z,102730.88
2023-02-14T05:45:27.991Z,102735.75
2023-02-14T05:47:55.481Z,102733.28
2023-02-14T05:50:24.400Z,102731.38
2023-02-14T05:52:51.890Z,102734.22
2023-02-14T05:55:19.433Z,102727.03
2023-02-14T05:57:46.957Z,102729.53
2023-02-14T06:00:15.758Z,102730.59
2023-02-14T06:02:43.261Z,102730.22
2023-02-14T06:05:10.763Z,102737.97
2023-02-14T06:07:39.607Z,102736.28
2023-02-14T06:10:09.793Z,102728.19
2023-02-14T06:12:37.332Z,102735.69
2023-02-14T06:15:05.477Z,102732.22
2023-02-14T06:17:32.924Z,102731.34
2023-02-14T06:20:45.360Z,102734.47
2023-02-14T06:23:14.296Z,102733.41
2023-02-14T06:25:41.799Z,102729.81
2023-02-14T06:28:09.278Z,102734.97
2023-02-14T06:30:36.868Z,102730.72
2023-02-14T06:33:04.688Z,102736.38
2023-02-14T06:35:32.219Z,102735.75
2023-02-14T06:38:00.075Z,102730.97
2023-02-14T06:40:28.943Z,102735.50
2023-02-14T06:42:56.394Z,102731.59
2023-02-14T06:45:24.120Z,102731.63
2023-02-14T06:47:51.580Z,102732.16
2023-02-14T06:50:19.275Z,102729.09
2023-02-14T06:52:47.325Z,102728.34
2023-02-14T06:55:14.845Z,102733.38
2023-02-14T06:57:43.654Z,102727.31
2023-02-14T07:00:11.909Z,102729.38
2023-02-14T07:02:39.393Z,102733.97
2023-02-14T07:05:07.283Z,102729.09
2023-02-14T07:07:34.733Z,102730.16
2023-02-14T07:10:02.198Z,102731.56
2023-02-14T07:12:29.649Z,102725.16
2023-02-14T07:14:58.519Z,102731.78
2023-02-14T07:17:26.003Z,102729.31
2023-02-14T07:19:53.503Z,102729.53
2023-02-14T07:22:20.951Z,102730.41
2023-02-14T07:24:48.457Z,102733.97
2023-02-14T07:27:15.941Z,102729.41
2023-02-14T07:29:43.440Z,102738.91
2023-02-14T07:32:12.423Z,102729.94
2023-02-14T07:34:40.014Z,102735.75
2023-02-14T07:37:07.542Z,102733.97
2023-02-14T07:39:35.152Z,102741.22
2023-02-14T07:42:02.835Z,102734.44
2023-02-14T07:44:30.337Z,102739.38
2023-02-14T07:46:57.819Z,102734.91
2023-02-14T07:49:26.623Z,102741.53
2023-02-14T07:51:54.165Z,102742.03
2023-02-14T07:54:21.676Z,102734.97
2023-02-14T07:56:49.305Z,102746.38
2023-02-14T07:59:16.900Z,102743.41
2023-02-14T08:01:44.643Z,102740.81
2023-02-14T08:04:16.350Z,102741.84
2023-02-14T08:06:45.297Z,102733.66
2023-02-14T08:09:24.423Z,102732.56
2023-02-14T08:12:10.094Z,102740.47
2023-02-14T08:14:37.718Z,102731.59
2023-02-14T08:17:07.201Z,102734.06
2023-02-14T08:19:34.781Z,102731.00
2023-02-14T08:22:04.475Z,102735.97
2023-02-14T08:24:32.011Z,102737.94
2023-02-14T08:26:59.577Z,102746.88
2023-02-14T08:29:27.157Z,102736.94
2023-02-14T08:31:54.811Z,102738.59
2023-02-14T08:34:22.364Z,102726.94
2023-02-14T08:36:49.940Z,102732.50
2023-02-14T08:39:18.879Z,102734.84
2023-02-14T08:41:46.336Z,102741.22
2023-02-14T08:44:14.092Z,102733.00
2023-02-14T08:46:41.749Z,102732.53
2023-02-14T08:49:10.796Z,102736.22
2023-02-14T08:51:38.283Z,102731.97
2023-02-14T08:54:05.921Z,102737.50
2023-02-14T08:56:35.311Z,102736.34
2023-02-14T08:59:03.962Z,102739.56
2023-02-14T09:01:31.515Z,102726.56
2023-02-14T09:03:59.092Z,102732.28
2023-02-14T09:06:26.625Z,102738.19
2023-02-14T09:08:55.085Z,102723.84
2023-02-14T09:11:24.360Z,102729.13
2023-02-14T09:13:54.079Z,102733.91
2023-02-14T09:16:22.482Z,102728.97
2023-02-14T09:18:50.553Z,102736.22
2023-02-14T09:21:20.249Z,102730.38
2023-02-14T09:23:47.699Z,102732.34
2023-02-14T09:26:16.212Z,102735.91
2023-02-14T09:28:43.923Z,102732.16
2023-02-14T09:31:15.333Z,102731.66
2023-02-14T09:34:00.954Z,102731.50
2023-02-14T09:36:28.621Z,102724.91
2023-02-14T09:38:56.124Z,102718.28
2023-02-14T09:41:54.677Z,102724.63
2023-02-14T09:44:27.615Z,102728.00
2023-02-14T09:46:58.582Z,102718.50
2023-02-14T09:49:31.197Z,102718.53
2023-02-14T09:51:59.487Z,102717.41
2023-02-14T09:54:29.395Z,102721.97
2023-02-14T09:57:00.164Z,102727.09
2023-02-14T09:59:34.288Z,102722.03
2023-02-14T10:02:16.325Z,102723.59
2023-02-14T10:04:46.487Z,102725.06
2023-02-14T10:07:20.887Z,102727.75
2023-02-14T10:09:55.368Z,102723.19
2023-02-14T10:12:25.376Z,102720.16
2023-02-14T10:14:54.504Z,102720.16
2023-02-14T10:17:29.100Z,102735.72
2023-02-14T10:20:01.055Z,102722.72
2023-02-14T10:22:41.203Z,102730.38
2023-02-14T10:25:15.510Z,102725.44
2023-02-14T10:27:46.202Z,102723.31
2023-02-14T10:30:17.749Z,102731.44
2023-02-14T10:32:49.974Z,102730.06
2023-02-14T10:35:24.694Z,102726.28
2023-02-14T10:38:01.405Z,102719.53
2023-02-14T10:41:06.524Z,102722.34
2023-02-14T10:43:40.239Z,102716.03
2023-02-14T10:46:13.516Z,102715.38
2023-02-14T10:48:50.068Z,102714.28
2023-02-14T10:51:21.247Z,102705.25
2023-02-14T10:53:56.747Z,102704.44
2023-02-14T10:56:27.877Z,102703.69
2023-02-14T10:58:57.791Z,102706.97
2023-02-14T11:01:26.103Z,102693.47
2023-02-14T11:03:58.476Z,102698.78
2023-02-14T11:06:26.024Z,102698.34
2023-02-14T11:08:55.586Z,102697.13
2023-02-14T11:11:28.332Z,102686.66
2023-02-14T11:13:55.871Z,102690.16
2023-02-14T11:16:30.817Z,102678.00
2023-02-14T11:19:11.327Z,102680.06
2023-02-14T11:21:39.839Z,102675.50
2023-02-14T11:24:18.594Z,102664.94
2023-02-14T11:26:48.241Z,102656.38
2023-02-14T11:29:27.893Z,102659.59
2023-02-14T11:31:55.687Z,102656.97
2023-02-14T11:34:33.522Z,102642.63
2023-02-14T11:37:01.267Z,102644.00
2023-02-14T11:39:31.440Z,102643.75
2023-02-14T11:42:00.764Z,102645.94
2023-02-14T11:44:33.051Z,102637.34
2023-02-14T11:47:19.784Z,102637.75
2023-02-14T11:49:58.101Z,102634.56
2023-02-14T11:52:29.570Z,102644.56
2023-02-14T11:54:58.071Z,102628.75
2023-02-14T11:57:28.685Z,102627.50
2023-02-14T11:59:57.082Z,102630.81
2023-02-14T12:02:40.125Z,102625.44
2023-02-14T12:05:20.855Z,102618.56
2023-02-14T12:07:49.636Z,102616.88
2023-02-14T12:10:21.362Z,102618.00
2023-02-14T12:12:53.849Z,102612.34
2023-02-14T12:15:37.668Z,102618.53
2023-02-14T12:18:30.131Z,102615.28
2023-02-14T12:21:02.318Z,102611.53
2023-02-14T12:23:36.815Z,102606.13
2023-02-14T12:26:07.387Z,102603.84
2023-02-14T12:28:41.302Z,102588.72
2023-02-14T12:31:11.292Z,102596.16
2023-02-14T12:33:39.683Z,102598.28
2023-02-14T12:36:14.157Z,102594.66
2023-02-14T12:38:49.574Z,102594.00
2023-02-14T12:41:26.008Z,102595.00
2023-02-14T12:43:54.553Z,102590.03
2023-02-14T12:46:34.451Z,102587.66
2023-02-14T12:49:14.862Z,102584.06
2023-02-14T12:51:50.338Z,102572.66
2023-02-14T12:54:29.258Z,102574.47
2023-02-14T12:57:01.417Z,102570.06
2023-02-14T12:59:32.877Z,102569.59
2023-02-14T13:02:31.077Z,102563.94
2023-02-14T13:05:01.551Z,102557.06
2023-02-14T13:08:05.005Z,102551.34
2023-02-14T13:10:46.427Z,102551.50
2023-02-14T13:13:21.404Z,102546.38
2023-02-14T13:15:54.915Z,102547.56
2023-02-14T13:18:33.547Z,102530.66
2023-02-14T13:21:02.847Z,102533.66
2023-02-14T13:23:35.951Z,102532.78
2023-02-14T13:26:07.815Z,102530.06
2023-02-14T13:28:37.480Z,102532.19
2023-02-14T13:31:06.025Z,102534.03
2023-02-14T13:33:36.290Z,102525.19
2023-02-14T13:36:07.692Z,102517.78
2023-02-14T13:38:40.563Z,102514.81
2023-02-14T13:41:08.464Z,102515.38
2023-02-14T13:43:46.882Z,102511.91
2023-02-14T13:46:14.916Z,102515.16
2023-02-14T13:48:43.449Z,102518.19
2023-02-14T13:51:11.349Z,102515.69
2023-02-14T13:53:42.062Z,102513.34
2023-02-14T13:56:32.458Z,102515.25
2023-02-14T13:59:04.351Z,102514.06
2023-02-14T14:01:35.678Z,102511.66
2023-02-14T14:04:06.271Z,102500.44
2023-02-14T14:07:08.046Z,102502.22
2023-02-14T14:10:01.442Z,102504.34
2023-02-14T14:12:45.119Z,102507.41
2023-02-14T14:15:21.963Z,102498.81
2023-02-14T14:18:34.174Z,102500.63
2023-02-14T14:21:01.658Z,102499.06
2023-02-14T14:23:31.964Z,102493.13
2023-02-14T14:26:01.456Z,102490.03
2023-02-14T14:28:31.622Z,102495.41
2023-02-14T14:30:59.393Z,102483.91
2023-02-14T14:33:30.001Z,102482.31
2023-02-14T14:35:59.660Z,102477.94
2023-02-14T14:38:27.646Z,102475.25
2023-02-14T14:40:55.613Z,102478.53
2023-02-14T14:43:27.852Z,102481.03
2023-02-14T14:45:56.146Z,102476.13
2023-02-14T14:48:28.940Z,102468.22
2023-02-14T14:50:57.058Z,102465.97
2023-02-14T14:53:28.025Z,102455.31
2023-02-14T14:55:55.990Z,102461.88
2023-02-14T14:58:39.613Z,102459.19
2023-02-14T15:01:08.669Z,102448.13
2023-02-14T15:03:36.172Z,102449.94
2023-02-14T15:06:07.554Z,102459.03
2023-02-14T15:08:35.912Z,102449.53
2023-02-14T15:11:07.457Z,102444.16
2023-02-14T15:13:50.986Z,102442.22
2023-02-14T15:16:20.353Z,102434.72
2023-02-14T15:18:48.116Z,102437.50
2023-02-14T15:21:16.504Z,102436.22
2023-02-14T15:23:44.979Z,102436.44
2023-02-14T15:26:18.741Z,102436.66
2023-02-14T15:28:55.588Z,102437.91
2023-02-14T15:31:23.715Z,102439.38
2023-02-14T15:33:51.561Z,102442.94
2023-02-14T15:36:21.374Z,102442.53
2023-02-14T15:38:49.039Z,102444.66
2023-02-14T15:41:17.765Z,102433.09
2023-02-14T15:43:53.565Z,102434.06
2023-02-14T15:46:29.845Z,102432.09
2023-02-14T15:49:01.012Z,102429.00
2023-02-14T15:51:30.789Z,102425.34
2023-02-14T15:54:00.325Z,102425.44
2023-02-14T15:56:29.566Z,102421.38
2023-02-14T15:59:01.947Z,102417.31
2023-02-14T16:01:30.716Z,102423.00
2023-02-14T16:04:00.146Z,102409.31
2023-02-14T16:06:38.632Z,102418.19
2023-02-14T16:09:08.337Z,102416.56
2023-02-14T16:11:37.172Z,102412.59
2023-02-14T16:14:32.496Z,102418.06
2023-02-14T16:17:02.359Z,102410.69
2023-02-14T16:19:34.590Z,102421.78
2023-02-14T16:22:02.481Z,102423.88
2023-02-14T16:24:29.981Z,102422.59
2023-02-14T16:26:58.129Z,102430.34
2023-02-14T16:29:25.595Z,102425.25
2023-02-14T16:32:14.478Z,102435.28
2023-02-14T16:34:43.491Z,102433.84
2023-02-14T16:37:21.233Z,102431.31
2023-02-14T16:39:49.149Z,102431.41
2023-02-14T16:42:17.767Z,102427.47
2023-02-14T16:44:45.636Z,102420.72
2023-02-14T16:47:15.787Z,102421.88
2023-02-14T16:49:43.364Z,102425.66
2023-02-14T16:52:13.374Z,102426.22
2023-02-14T16:54:41.002Z,102426.31
2023-02-14T16:57:13.689Z,102425.66
2023-02-14T16:59:41.146Z,102430.53
2023-02-14T17:02:08.754Z,102431.97
2023-02-14T17:04:37.630Z,102431.31
2023-02-14T17:07:06.604Z,102432.16
2023-02-14T17:09:36.973Z,102436.97
2023-02-14T17:12:08.322Z,102430.09
2023-02-14T17:14:37.877Z,102432.63
2023-02-14T17:17:05.378Z,102435.03
2023-02-14T17:19:33.146Z,102439.16
2023-02-14T17:22:01.955Z,102439.25
2023-02-14T17:24:29.662Z,102447.94
2023-02-14T17:26:57.149Z,102449.94
2023-02-14T17:29:24.651Z,102451.06
2023-02-14T17:31:52.168Z,102452.25
2023-02-14T17:34:21.820Z,102479.03
2023-02-14T17:36:49.326Z,102466.94
2023-02-14T17:39:19.819Z,102467.72
2023-02-14T17:41:47.430Z,102467.00
2023-02-14T17:44:14.935Z,102474.44
2023-02-14T17:46:42.563Z,102467.94
2023-02-14T17:49:10.360Z,102470.38
2023-02-14T17:51:37.926Z,102476.72
2023-02-14T17:54:05.491Z,102472.28
2023-02-14T17:56:34.402Z,102478.59
2023-02-14T17:59:01.884Z,102474.94
2023-02-14T18:01:34.224Z,102470.50
2023-02-14T18:04:01.864Z,102461.66
2023-02-14T18:06:29.423Z,102462.81
2023-02-14T18:08:57.638Z,102464.72
2023-02-14T18:11:26.764Z,102461.47
2023-02-14T18:13:56.128Z,102455.97
2023-02-14T18:16:24.661Z,102448.38
2023-02-14T18:18:54.956Z,102452.50
2023-02-14T18:21:25.855Z,102444.75
2023-02-14T18:23:53.633Z,102441.84
2023-02-14T18:26:23.566Z,102454.84
2023-02-14T18:28:51.951Z,102440.47
2023-02-14T18:31:21.684Z,102438.13
2023-02-14T18:33:51.194Z,102432.03
2023-02-14T18:36:20.624Z,102435.25
2023-02-14T18:38:49.792Z,102443.22
2023-02-14T18:41:19.450Z,102443.75
2023-02-14T18:43:50.971Z,102440.34
2023-02-14T18:46:22.204Z,102432.72
2023-02-14T18:48:51.699Z,102430.50
2023-02-14T18:51:24.490Z,102427.88
2023-02-14T18:53:52.815Z,102426.41
2023-02-14T18:56:22.442Z,102426.16
2023-02-14T18:58:52.869Z,102414.56
2023-02-14T19:01:22.285Z,102414.31
2023-02-14T19:03:52.848Z,102420.63
2023-02-14T19:06:21.245Z,102418.88
2023-02-14T19:08:49.066Z,102411.84
2023-02-14T19:11:18.284Z,102410.53
2023-02-14T19:13:46.284Z,102410.66
2023-02-14T19:16:17.643Z,102411.69
2023-02-14T19:18:45.733Z,102408.13
2023-02-14T19:21:15.568Z,102402.88
2023-02-14T19:23:47.006Z,102403.03
2023-02-14T19:26:19.052Z,102404.88
2023-02-14T19:28:48.236Z,102408.69
2023-02-14T19:31:17.844Z,102410.13
2023-02-14T19:33:48.019Z,102414.91
2023-02-14T19:36:20.536Z,102407.88
2023-02-14T19:38:50.299Z,102400.78
2023-02-14T19:41:19.756Z,102406.00
2023-02-14T19:43:48.881Z,102406.22
2023-02-14T19:46:17.887Z,102403.25
2023-02-14T19:48:45.904Z,102396.81
2023-02-14T19:51:19.966Z,102402.81
2023-02-14T19:53:48.795Z,102399.94
2023-02-14T19:56:23.629Z,102400.63
2023-02-14T19:58:52.119Z,102394.44
2023-02-14T20:01:27.962Z,102402.53
2023-02-14T20:03:56.063Z,102401.34
2023-02-14T20:06:26.154Z,102391.69
2023-02-14T20:08:54.210Z,102398.72
2023-02-14T20:11:30.437Z,102394.31
2023-02-14T20:13:58.712Z,102386.53
2023-02-14T20:16:27.468Z,102385.69
2023-02-14T20:18:55.567Z,102388.91
2023-02-14T20:21:28.297Z,102388.06
2023-02-14T20:23:58.596Z,102390.44
2023-02-14T20:26:26.401Z,102388.28
2023-02-14T20:28:54.831Z,102381.63
2023-02-14T20:31:22.782Z,102379.41
2023-02-14T20:33:51.484Z,102379.50
2023-02-14T20:36:19.519Z,102371.28
2023-02-14T20:38:55.411Z,102381.63
2023-02-14T20:41:23.558Z,102373.22
2023-02-14T20:43:53.226Z,102371.63
2023-02-14T20:46:21.409Z,102363.13
2023-02-14T20:48:51.043Z,102364.34
2023-02-14T20:51:20.795Z,102359.44
2023-02-14T20:53:53.231Z,102357.91
2023-02-14T20:56:24.648Z,102350.44
2023-02-14T20:58:52.574Z,102357.63
2023-02-14T21:01:21.636Z,102359.41
2023-02-14T21:03:52.456Z,102362.44
2023-02-14T21:06:21.619Z,102356.06
2023-02-14T21:08:51.167Z,102357.41
2023-02-14T21:11:20.598Z,102360.00
2023-02-14T21:13:51.524Z,102351.03
2023-02-14T21:16:20.881Z,102345.53
2023-02-14T21:18:52.441Z,102338.53
2023-02-14T21:21:24.231Z,102341.91
2023-02-14T21:23:56.356Z,102341.25
2023-02-14T21:26:24.624Z,102338.47
2023-02-14T21:28:52.478Z,102345.91
2023-02-14T21:31:21.962Z,102339.28
2023-02-14T21:33:50.996Z,102345.00
2023-02-14T21:36:19.791Z,102337.44
2023-02-14T21:38:49.812Z,102335.84
2023-02-14T21:41:20.461Z,102320.75
2023-02-14T21:43:49.589Z,102312.72
2023-02-14T21:46:18.526Z,102323.34
2023-02-14T21:49:03.922Z,102324.00
2023-02-14T21:51:34.046Z,102308.50
2023-02-14T21:54:01.693Z,102312.53
2023-02-14T21:56:30.782Z,102320.84
2023-02-14T21:58:58.621Z,102320.66
2023-02-14T22:01:27.940Z,102321.78
2023-02-14T22:03:56.546Z,102316.72
2023-02-14T22:06:24.416Z,102303.56
2023-02-14T22:08:54.489Z,102301.56
2023-02-14T22:11:22.818Z,102304.88
2023-02-14T22:13:51.961Z,102308.50
2023-02-14T22:16:23.708Z,102306.38
2023-02-14T22:18:53.415Z,102311.19
2023-02-14T22:21:23.451Z,102310.63
2023-02-14T22:23:52.102Z,102312.53
2023-02-14T22:26:22.828Z,102303.16
2023-02-14T22:28:53.796Z,102309.84
2023-02-14T22:31:22.117Z,102304.66
2023-02-14T22:33:51.395Z,102311.84
2023-02-14T22:36:19.069Z,102301.31
2023-02-14T22:38:48.243Z,102296.88
2023-02-14T22:41:18.134Z,102299.75
2023-02-14T22:43:46.303Z,102297.41
2023-02-14T22:46:17.988Z,102298.25
2023-02-14T22:48:45.694Z,102295.81
2023-02-14T22:51:19.650Z,102294.69
2023-02-14T22:53:49.134Z,102292.00
2023-02-14T22:56:21.611Z,102288.59
2023-02-14T22:58:58.681Z,102291.97
2023-02-14T23:01:28.602Z,102288.44
2023-02-14T23:03:57.815Z,102292.91
2023-02-14T23:06:27.528Z,102292.91
2023-02-14T23:08:57.177Z,102291.97
2023-02-14T23:11:35.188Z,102284.78
2023-02-14T23:14:23.580Z,102282.03
2023-02-14T23:17:10.170Z,102288.38
2023-02-14T23:19:55.928Z,102287.22
2023-02-14T23:22:25.167Z,102290.47
2023-02-14T23:24:57.085Z,102295.28
2023-02-14T23:27:27.302Z,102292.22
2023-02-14T23:29:54.833Z,102292.72
2023-02-14T23:32:23.751Z,102289.56
2023-02-14T23:34:52.260Z,102294.72
2023-02-14T23:37:19.885Z,102288.03
2023-02-14T23:39:49.767Z,102298.84
2023-02-14T23:42:17.307Z,102294.22
2023-02-14T23:44:45.405Z,102297.13
2023-02-14T23:47:13.972Z,102296.03
2023-02-14T23:49:43.550Z,102296.94
2023-02-14T23:52:12.939Z,102296.59
2023-02-14T23:54:40.650Z,102293.47
2023-02-14T23:57:08.878Z,102283.63
2023-02-14T23:59:36.772Z,102283.13
